sensor_id;sensor_type;location;lat;lon;timestamp;P1;durP1;ratioP1;P2;durP2;ratioP2
47804;SDS011;33568;45.286;9.900;2024-02-26T00:01:04;18.83;;;12.90;;
47804;SDS011;33568;45.286;9.900;2024-02-26T00:03:30;14.15;;;11.85;;
47804;SDS011;33568;45.286;9.900;2024-02-26T00:05:59;17.40;;;12.65;;
47804;SDS011;33568;45.286;9.900;2024-02-26T00:08:25;14.65;;;12.18;;
47804;SDS011;33568;45.286;9.900;2024-02-26T00:10:51;19.63;;;11.90;;
47804;SDS011;33568;45.286;9.900;2024-02-26T00:13:18;15.15;;;11.73;;
47804;SDS011;33568;45.286;9.900;2024-02-26T00:15:46;16.17;;;10.85;;
47804;SDS011;33568;45.286;9.900;2024-02-26T00:18:12;18.17;;;12.15;;
47804;SDS011;33568;45.286;9.900;2024-02-26T00:20:40;14.38;;;10.73;;
47804;SDS011;33568;45.286;9.900;2024-02-26T00:23:08;15.02;;;11.45;;
47804;SDS011;33568;45.286;9.900;2024-02-26T00:28:04;19.95;;;10.98;;
47804;SDS011;33568;45.286;9.900;2024-02-26T00:30:31;13.07;;;10.23;;
47804;SDS011;33568;45.286;9.900;2024-02-26T00:35:24;14.15;;;10.15;;
47804;SDS011;33568;45.286;9.900;2024-02-26T00:40:16;13.23;;;9.95;;
47804;SDS011;33568;45.286;9.900;2024-02-26T00:45:11;14.27;;;10.27;;
47804;SDS011;33568;45.286;9.900;2024-02-26T00:47:38;15.27;;;10.07;;
47804;SDS011;33568;45.286;9.900;2024-02-26T00:50:07;11.75;;;9.75;;
47804;SDS011;33568;45.286;9.900;2024-02-26T00:52:34;11.07;;;9.93;;
47804;SDS011;33568;45.286;9.900;2024-02-26T00:55:01;14.48;;;9.38;;
47804;SDS011;33568;45.286;9.900;2024-02-26T00:57:28;14.10;;;9.15;;
47804;SDS011;33568;45.286;9.900;2024-02-26T00:59:55;11.98;;;9.10;;
47804;SDS011;33568;45.286;9.900;2024-02-26T01:02:22;11.82;;;9.52;;
47804;SDS011;33568;45.286;9.900;2024-02-26T01:07:15;14.32;;;9.32;;
47804;SDS011;33568;45.286;9.900;2024-02-26T01:09:42;11.73;;;8.20;;
47804;SDS011;33568;45.286;9.900;2024-02-26T01:12:08;10.90;;;8.77;;
47804;SDS011;33568;45.286;9.900;2024-02-26T01:17:01;9.63;;;8.48;;
47804;SDS011;33568;45.286;9.900;2024-02-26T01:19:28;10.75;;;8.13;;
47804;SDS011;33568;45.286;9.900;2024-02-26T01:21:54;12.40;;;8.75;;
47804;SDS011;33568;45.286;9.900;2024-02-26T01:24:20;9.98;;;8.98;;
47804;SDS011;33568;45.286;9.900;2024-02-26T01:26:47;14.45;;;9.25;;
47804;SDS011;33568;45.286;9.900;2024-02-26T01:29:13;10.85;;;7.60;;
47804;SDS011;33568;45.286;9.900;2024-02-26T01:34:06;13.85;;;8.93;;
47804;SDS011;33568;45.286;9.900;2024-02-26T01:36:32;10.00;;;7.55;;
47804;SDS011;33568;45.286;9.900;2024-02-26T01:39:00;12.00;;;8.27;;
47804;SDS011;33568;45.286;9.900;2024-02-26T01:41:26;11.35;;;7.38;;
47804;SDS011;33568;45.286;9.900;2024-02-26T01:43:52;9.27;;;7.28;;
47804;SDS011;33568;45.286;9.900;2024-02-26T01:46:20;8.88;;;7.22;;
47804;SDS011;33568;45.286;9.900;2024-02-26T01:48:46;8.88;;;7.03;;
47804;SDS011;33568;45.286;9.900;2024-02-26T01:51:15;9.27;;;7.25;;
47804;SDS011;33568;45.286;9.900;2024-02-26T01:53:43;10.18;;;7.55;;
47804;SDS011;33568;45.286;9.900;2024-02-26T01:56:10;9.73;;;7.00;;
47804;SDS011;33568;45.286;9.900;2024-02-26T01:58:38;9.88;;;7.03;;
47804;SDS011;33568;45.286;9.900;2024-02-26T02:01:04;12.63;;;7.05;;
47804;SDS011;33568;45.286;9.900;2024-02-26T02:03:31;9.70;;;6.32;;
47804;SDS011;33568;45.286;9.900;2024-02-26T02:05:58;11.45;;;6.80;;
47804;SDS011;33568;45.286;9.900;2024-02-26T02:08:24;7.05;;;6.10;;
47804;SDS011;33568;45.286;9.900;2024-02-26T02:10:51;9.68;;;6.93;;
47804;SDS011;33568;45.286;9.900;2024-02-26T02:15:44;10.02;;;6.78;;
47804;SDS011;33568;45.286;9.900;2024-02-26T02:18:10;13.65;;;7.57;;
47804;SDS011;33568;45.286;9.900;2024-02-26T02:23:03;12.75;;;7.00;;
47804;SDS011;33568;45.286;9.900;2024-02-26T02:25:29;8.23;;;6.68;;
47804;SDS011;33568;45.286;9.900;2024-02-26T02:27:57;10.60;;;7.22;;
47804;SDS011;33568;45.286;9.900;2024-02-26T02:30:25;11.13;;;7.53;;
47804;SDS011;33568;45.286;9.900;2024-02-26T02:32:54;9.52;;;6.72;;
47804;SDS011;33568;45.286;9.900;2024-02-26T02:35:23;10.20;;;6.65;;
47804;SDS011;33568;45.286;9.900;2024-02-26T02:37:50;9.30;;;7.13;;
47804;SDS011;33568;45.286;9.900;2024-02-26T02:40:20;8.73;;;7.05;;
47804;SDS011;33568;45.286;9.900;2024-02-26T02:42:50;11.65;;;7.20;;
47804;SDS011;33568;45.286;9.900;2024-02-26T02:45:16;10.73;;;6.85;;
47804;SDS011;33568;45.286;9.900;2024-02-26T02:47:42;7.53;;;6.82;;
47804;SDS011;33568;45.286;9.900;2024-02-26T02:50:09;8.20;;;6.80;;
47804;SDS011;33568;45.286;9.900;2024-02-26T02:55:01;8.05;;;7.25;;
47804;SDS011;33568;45.286;9.900;2024-02-26T02:57:28;8.73;;;7.10;;
47804;SDS011;33568;45.286;9.900;2024-02-26T02:59:56;10.13;;;7.38;;
47804;SDS011;33568;45.286;9.900;2024-02-26T03:02:22;11.57;;;7.15;;
47804;SDS011;33568;45.286;9.900;2024-02-26T03:04:50;10.25;;;7.30;;
47804;SDS011;33568;45.286;9.900;2024-02-26T03:07:17;7.72;;;6.85;;
47804;SDS011;33568;45.286;9.900;2024-02-26T03:09:43;9.77;;;7.07;;
47804;SDS011;33568;45.286;9.900;2024-02-26T03:12:10;10.07;;;7.20;;
47804;SDS011;33568;45.286;9.900;2024-02-26T03:14:36;9.85;;;7.60;;
47804;SDS011;33568;45.286;9.900;2024-02-26T03:17:03;9.55;;;7.28;;
47804;SDS011;33568;45.286;9.900;2024-02-26T03:21:55;8.68;;;7.22;;
47804;SDS011;33568;45.286;9.900;2024-02-26T03:24:22;15.25;;;7.93;;
47804;SDS011;33568;45.286;9.900;2024-02-26T03:26:48;15.63;;;7.78;;
47804;SDS011;33568;45.286;9.900;2024-02-26T03:29:15;10.68;;;7.93;;
47804;SDS011;33568;45.286;9.900;2024-02-26T03:31:42;14.23;;;8.50;;
47804;SDS011;33568;45.286;9.900;2024-02-26T03:34:08;11.02;;;7.68;;
47804;SDS011;33568;45.286;9.900;2024-02-26T03:36:35;8.77;;;7.85;;
47804;SDS011;33568;45.286;9.900;2024-02-26T03:39:01;11.65;;;7.88;;
47804;SDS011;33568;45.286;9.900;2024-02-26T03:41:30;13.30;;;8.70;;
47804;SDS011;33568;45.286;9.900;2024-02-26T03:43:57;11.68;;;7.63;;
47804;SDS011;33568;45.286;9.900;2024-02-26T03:46:24;9.98;;;8.52;;
47804;SDS011;33568;45.286;9.900;2024-02-26T03:51:18;9.65;;;8.45;;
47804;SDS011;33568;45.286;9.900;2024-02-26T03:53:44;9.93;;;8.55;;
47804;SDS011;33568;45.286;9.900;2024-02-26T03:56:11;12.93;;;8.43;;
47804;SDS011;33568;45.286;9.900;2024-02-26T03:58:39;13.15;;;8.65;;
47804;SDS011;33568;45.286;9.900;2024-02-26T04:01:08;10.32;;;7.60;;
47804;SDS011;33568;45.286;9.900;2024-02-26T04:03:35;10.80;;;7.80;;
47804;SDS011;33568;45.286;9.900;2024-02-26T04:08:28;9.70;;;8.45;;
47804;SDS011;33568;45.286;9.900;2024-02-26T04:10:55;10.57;;;8.95;;
47804;SDS011;33568;45.286;9.900;2024-02-26T04:13:21;12.85;;;8.95;;
47804;SDS011;33568;45.286;9.900;2024-02-26T04:15:47;11.30;;;8.75;;
47804;SDS011;33568;45.286;9.900;2024-02-26T04:18:14;10.57;;;8.32;;
47804;SDS011;33568;45.286;9.900;2024-02-26T04:20:40;9.73;;;7.70;;
47804;SDS011;33568;45.286;9.900;2024-02-26T04:23:08;11.45;;;8.90;;
47804;SDS011;33568;45.286;9.900;2024-02-26T04:25:34;9.55;;;8.55;;
47804;SDS011;33568;45.286;9.900;2024-02-26T04:28:00;9.95;;;8.70;;
47804;SDS011;33568;45.286;9.900;2024-02-26T04:30:27;10.75;;;8.65;;
47804;SDS011;33568;45.286;9.900;2024-02-26T04:32:53;10.43;;;8.45;;
47804;SDS011;33568;45.286;9.900;2024-02-26T04:35:19;14.02;;;8.88;;
47804;SDS011;33568;45.286;9.900;2024-02-26T04:37:49;10.30;;;8.23;;
47804;SDS011;33568;45.286;9.900;2024-02-26T04:40:15;11.38;;;9.35;;
47804;SDS011;33568;45.286;9.900;2024-02-26T04:42:41;13.70;;;9.68;;
47804;SDS011;33568;45.286;9.900;2024-02-26T04:47:34;12.27;;;9.00;;
47804;SDS011;33568;45.286;9.900;2024-02-26T04:52:27;11.80;;;9.15;;
47804;SDS011;33568;45.286;9.900;2024-02-26T04:54:54;13.50;;;9.98;;
47804;SDS011;33568;45.286;9.900;2024-02-26T04:57:21;13.27;;;8.98;;
47804;SDS011;33568;45.286;9.900;2024-02-26T04:59:48;12.93;;;10.35;;
47804;SDS011;33568;45.286;9.900;2024-02-26T05:02:14;11.45;;;9.18;;
47804;SDS011;33568;45.286;9.900;2024-02-26T05:04:41;12.15;;;9.65;;
47804;SDS011;33568;45.286;9.900;2024-02-26T05:09:34;9.70;;;8.68;;
47804;SDS011;33568;45.286;9.900;2024-02-26T05:12:00;13.00;;;9.93;;
47804;SDS011;33568;45.286;9.900;2024-02-26T05:14:27;11.57;;;9.07;;
47804;SDS011;33568;45.286;9.900;2024-02-26T05:16:53;13.90;;;9.90;;
47804;SDS011;33568;45.286;9.900;2024-02-26T05:19:20;10.88;;;9.50;;
47804;SDS011;33568;45.286;9.900;2024-02-26T05:21:46;13.50;;;10.48;;
47804;SDS011;33568;45.286;9.900;2024-02-26T05:24:14;10.30;;;9.27;;
47804;SDS011;33568;45.286;9.900;2024-02-26T05:26:43;11.95;;;9.88;;
47804;SDS011;33568;45.286;9.900;2024-02-26T05:29:10;11.82;;;10.23;;
47804;SDS011;33568;45.286;9.900;2024-02-26T05:31:37;17.70;;;10.35;;
47804;SDS011;33568;45.286;9.900;2024-02-26T05:36:30;11.05;;;9.95;;
47804;SDS011;33568;45.286;9.900;2024-02-26T05:38:59;17.65;;;10.65;;
47804;SDS011;33568;45.286;9.900;2024-02-26T05:41:26;12.75;;;10.10;;
47804;SDS011;33568;45.286;9.900;2024-02-26T05:43:53;11.10;;;9.85;;
47804;SDS011;33568;45.286;9.900;2024-02-26T05:46:19;12.35;;;11.07;;
47804;SDS011;33568;45.286;9.900;2024-02-26T05:48:50;13.50;;;11.15;;
47804;SDS011;33568;45.286;9.900;2024-02-26T05:51:18;12.95;;;11.40;;
47804;SDS011;33568;45.286;9.900;2024-02-26T05:56:12;12.27;;;10.60;;
47804;SDS011;33568;45.286;9.900;2024-02-26T06:01:05;10.18;;;9.18;;
47804;SDS011;33568;45.286;9.900;2024-02-26T06:03:31;12.60;;;10.40;;
47804;SDS011;33568;45.286;9.900;2024-02-26T06:05:58;11.63;;;10.52;;
47804;SDS011;33568;45.286;9.900;2024-02-26T06:10:51;11.90;;;9.90;;
47804;SDS011;33568;45.286;9.900;2024-02-26T06:13:17;20.52;;;13.63;;
47804;SDS011;33568;45.286;9.900;2024-02-26T06:15:44;15.30;;;11.68;;
47804;SDS011;33568;45.286;9.900;2024-02-26T06:18:10;12.30;;;10.98;;
47804;SDS011;33568;45.286;9.900;2024-02-26T06:20:36;12.48;;;10.88;;
47804;SDS011;33568;45.286;9.900;2024-02-26T06:23:03;13.05;;;11.57;;
47804;SDS011;33568;45.286;9.900;2024-02-26T06:27:56;14.00;;;10.95;;
47804;SDS011;33568;45.286;9.900;2024-02-26T06:30:22;12.20;;;10.82;;
47804;SDS011;33568;45.286;9.900;2024-02-26T06:32:48;12.32;;;11.05;;
47804;SDS011;33568;45.286;9.900;2024-02-26T06:35:15;14.63;;;12.07;;
47804;SDS011;33568;45.286;9.900;2024-02-26T06:37:41;14.13;;;11.57;;
47804;SDS011;33568;45.286;9.900;2024-02-26T06:40:07;14.57;;;12.70;;
47804;SDS011;33568;45.286;9.900;2024-02-26T06:42:34;16.20;;;12.60;;
47804;SDS011;33568;45.286;9.900;2024-02-26T06:47:27;15.85;;;11.73;;
47804;SDS011;33568;45.286;9.900;2024-02-26T06:49:53;14.52;;;12.32;;
47804;SDS011;33568;45.286;9.900;2024-02-26T06:52:23;13.68;;;12.13;;
47804;SDS011;33568;45.286;9.900;2024-02-26T06:54:51;16.67;;;12.18;;
47804;SDS011;33568;45.286;9.900;2024-02-26T06:57:19;16.35;;;13.38;;
47804;SDS011;33568;45.286;9.900;2024-02-26T06:59:46;20.90;;;13.88;;
47804;SDS011;33568;45.286;9.900;2024-02-26T07:02:15;17.85;;;14.70;;
47804;SDS011;33568;45.286;9.900;2024-02-26T07:04:42;19.33;;;15.15;;
47804;SDS011;33568;45.286;9.900;2024-02-26T07:07:09;15.63;;;13.90;;
47804;SDS011;33568;45.286;9.900;2024-02-26T07:09:36;18.30;;;13.85;;
47804;SDS011;33568;45.286;9.900;2024-02-26T07:12:03;18.58;;;13.45;;
47804;SDS011;33568;45.286;9.900;2024-02-26T07:14:29;21.23;;;13.73;;
47804;SDS011;33568;45.286;9.900;2024-02-26T07:16:56;16.33;;;14.05;;
47804;SDS011;33568;45.286;9.900;2024-02-26T07:19:24;18.45;;;14.88;;
47804;SDS011;33568;45.286;9.900;2024-02-26T07:21:50;18.20;;;13.85;;
47804;SDS011;33568;45.286;9.900;2024-02-26T07:24:16;19.85;;;14.93;;
47804;SDS011;33568;45.286;9.900;2024-02-26T07:26:43;15.15;;;13.65;;
47804;SDS011;33568;45.286;9.900;2024-02-26T07:29:09;20.60;;;14.38;;
47804;SDS011;33568;45.286;9.900;2024-02-26T07:31:35;18.55;;;15.32;;
47804;SDS011;33568;45.286;9.900;2024-02-26T07:34:02;16.70;;;13.90;;
47804;SDS011;33568;45.286;9.900;2024-02-26T07:36:28;16.70;;;13.43;;
47804;SDS011;33568;45.286;9.900;2024-02-26T07:38:54;15.80;;;13.07;;
47804;SDS011;33568;45.286;9.900;2024-02-26T07:43:48;15.52;;;13.77;;
47804;SDS011;33568;45.286;9.900;2024-02-26T07:46:14;18.27;;;13.63;;
47804;SDS011;33568;45.286;9.900;2024-02-26T07:48:41;16.05;;;13.43;;
47804;SDS011;33568;45.286;9.900;2024-02-26T07:51:07;14.52;;;13.10;;
47804;SDS011;33568;45.286;9.900;2024-02-26T07:53:34;17.70;;;13.63;;
47804;SDS011;33568;45.286;9.900;2024-02-26T07:56:00;14.45;;;12.68;;
47804;SDS011;33568;45.286;9.900;2024-02-26T07:58:26;15.25;;;13.23;;
47804;SDS011;33568;45.286;9.900;2024-02-26T08:00:53;16.63;;;13.68;;
47804;SDS011;33568;45.286;9.900;2024-02-26T08:05:45;13.70;;;12.35;;
47804;SDS011;33568;45.286;9.900;2024-02-26T08:10:38;19.42;;;13.98;;
47804;SDS011;33568;45.286;9.900;2024-02-26T08:13:05;19.13;;;14.88;;
47804;SDS011;33568;45.286;9.900;2024-02-26T08:15:32;16.33;;;14.52;;
47804;SDS011;33568;45.286;9.900;2024-02-26T08:18:00;18.60;;;15.40;;
47804;SDS011;33568;45.286;9.900;2024-02-26T08:20:30;18.30;;;15.88;;
47804;SDS011;33568;45.286;9.900;2024-02-26T08:22:57;20.77;;;16.50;;
47804;SDS011;33568;45.286;9.900;2024-02-26T08:27:50;23.73;;;16.45;;
47804;SDS011;33568;45.286;9.900;2024-02-26T08:30:16;19.35;;;15.85;;
47804;SDS011;33568;45.286;9.900;2024-02-26T08:32:43;22.67;;;16.23;;
47804;SDS011;33568;45.286;9.900;2024-02-26T08:35:10;20.42;;;17.80;;
47804;SDS011;33568;45.286;9.900;2024-02-26T08:37:37;24.92;;;18.90;;
47804;SDS011;33568;45.286;9.900;2024-02-26T08:40:03;20.15;;;18.13;;
47804;SDS011;33568;45.286;9.900;2024-02-26T08:42:31;22.15;;;19.60;;
47804;SDS011;33568;45.286;9.900;2024-02-26T08:44:57;24.90;;;18.88;;
47804;SDS011;33568;45.286;9.900;2024-02-26T08:47:27;23.38;;;20.63;;
47804;SDS011;33568;45.286;9.900;2024-02-26T08:49:54;21.67;;;19.58;;
47804;SDS011;33568;45.286;9.900;2024-02-26T08:52:20;26.77;;;19.65;;
47804;SDS011;33568;45.286;9.900;2024-02-26T08:54:47;22.10;;;19.77;;
47804;SDS011;33568;45.286;9.900;2024-02-26T08:57:14;23.63;;;19.35;;
47804;SDS011;33568;45.286;9.900;2024-02-26T08:59:41;22.17;;;19.73;;
47804;SDS011;33568;45.286;9.900;2024-02-26T09:02:08;25.17;;;21.15;;
47804;SDS011;33568;45.286;9.900;2024-02-26T09:04:35;25.10;;;20.05;;
47804;SDS011;33568;45.286;9.900;2024-02-26T09:07:01;23.58;;;19.75;;
47804;SDS011;33568;45.286;9.900;2024-02-26T09:09:28;28.67;;;19.88;;
47804;SDS011;33568;45.286;9.900;2024-02-26T09:14:21;20.60;;;18.27;;
47804;SDS011;33568;45.286;9.900;2024-02-26T09:19:14;23.63;;;18.67;;
47804;SDS011;33568;45.286;9.900;2024-02-26T09:21:44;20.40;;;18.27;;
47804;SDS011;33568;45.286;9.900;2024-02-26T09:24:11;23.13;;;18.33;;
47804;SDS011;33568;45.286;9.900;2024-02-26T09:26:38;27.00;;;20.27;;
47804;SDS011;33568;45.286;9.900;2024-02-26T09:29:04;23.13;;;19.67;;
47804;SDS011;33568;45.286;9.900;2024-02-26T09:31:31;24.00;;;19.55;;
47804;SDS011;33568;45.286;9.900;2024-02-26T09:33:58;21.52;;;17.58;;
47804;SDS011;33568;45.286;9.900;2024-02-26T09:36:24;20.73;;;18.52;;
47804;SDS011;33568;45.286;9.900;2024-02-26T09:38:50;20.48;;;16.92;;
47804;SDS011;33568;45.286;9.900;2024-02-26T09:41:17;21.52;;;17.00;;
47804;SDS011;33568;45.286;9.900;2024-02-26T09:43:44;21.83;;;19.13;;
47804;SDS011;33568;45.286;9.900;2024-02-26T09:46:11;20.35;;;17.00;;
47804;SDS011;33568;45.286;9.900;2024-02-26T09:48:39;22.42;;;18.58;;
47804;SDS011;33568;45.286;9.900;2024-02-26T09:51:08;21.02;;;16.13;;
47804;SDS011;33568;45.286;9.900;2024-02-26T09:53:38;20.20;;;16.27;;
47804;SDS011;33568;45.286;9.900;2024-02-26T09:56:08;18.88;;;16.40;;
47804;SDS011;33568;45.286;9.900;2024-02-26T09:58:37;20.40;;;15.95;;
47804;SDS011;33568;45.286;9.900;2024-02-26T10:01:06;20.17;;;17.13;;
47804;SDS011;33568;45.286;9.900;2024-02-26T10:03:48;19.88;;;15.80;;
47804;SDS011;33568;45.286;9.900;2024-02-26T10:06:18;20.10;;;16.23;;
47804;SDS011;33568;45.286;9.900;2024-02-26T10:08:45;20.92;;;18.10;;
47804;SDS011;33568;45.286;9.900;2024-02-26T10:11:12;22.10;;;17.10;;
47804;SDS011;33568;45.286;9.900;2024-02-26T10:13:41;20.73;;;17.17;;
47804;SDS011;33568;45.286;9.900;2024-02-26T10:16:08;23.98;;;17.73;;
47804;SDS011;33568;45.286;9.900;2024-02-26T10:18:47;23.23;;;17.90;;
47804;SDS011;33568;45.286;9.900;2024-02-26T10:21:19;24.98;;;19.58;;
47804;SDS011;33568;45.286;9.900;2024-02-26T10:23:46;24.42;;;17.05;;
47804;SDS011;33568;45.286;9.900;2024-02-26T10:26:13;22.15;;;15.88;;
47804;SDS011;33568;45.286;9.900;2024-02-26T10:28:41;23.95;;;16.80;;
47804;SDS011;33568;45.286;9.900;2024-02-26T10:31:09;23.30;;;16.33;;
47804;SDS011;33568;45.286;9.900;2024-02-26T10:33:36;21.23;;;16.25;;
47804;SDS011;33568;45.286;9.900;2024-02-26T10:36:04;20.02;;;15.93;;
47804;SDS011;33568;45.286;9.900;2024-02-26T10:38:37;21.90;;;17.25;;
47804;SDS011;33568;45.286;9.900;2024-02-26T10:41:04;20.75;;;16.83;;
47804;SDS011;33568;45.286;9.900;2024-02-26T10:43:32;19.25;;;17.05;;
47804;SDS011;33568;45.286;9.900;2024-02-26T10:45:58;20.33;;;16.17;;
47804;SDS011;33568;45.286;9.900;2024-02-26T10:48:25;19.00;;;15.45;;
47804;SDS011;33568;45.286;9.900;2024-02-26T10:53:22;17.15;;;15.40;;
47804;SDS011;33568;45.286;9.900;2024-02-26T10:55:51;19.50;;;14.43;;
47804;SDS011;33568;45.286;9.900;2024-02-26T10:58:21;20.40;;;14.68;;
47804;SDS011;33568;45.286;9.900;2024-02-26T11:00:49;17.65;;;15.70;;
47804;SDS011;33568;45.286;9.900;2024-02-26T11:03:16;22.45;;;14.57;;
47804;SDS011;33568;45.286;9.900;2024-02-26T11:05:49;17.17;;;12.00;;
47804;SDS011;33568;45.286;9.900;2024-02-26T11:08:16;17.83;;;13.02;;
47804;SDS011;33568;45.286;9.900;2024-02-26T11:10:47;19.45;;;14.98;;
47804;SDS011;33568;45.286;9.900;2024-02-26T11:13:14;25.15;;;15.30;;
47804;SDS011;33568;45.286;9.900;2024-02-26T11:15:43;13.95;;;9.27;;
47804;SDS011;33568;45.286;9.900;2024-02-26T11:18:13;26.25;;;23.40;;
47804;SDS011;33568;45.286;9.900;2024-02-26T11:20:42;12.18;;;7.38;;
47804;SDS011;33568;45.286;9.900;2024-02-26T11:23:09;9.65;;;8.57;;
47804;SDS011;33568;45.286;9.900;2024-02-26T11:25:35;15.68;;;11.32;;
47804;SDS011;33568;45.286;9.900;2024-02-26T11:28:04;7.72;;;6.63;;
47804;SDS011;33568;45.286;9.900;2024-02-26T11:30:41;7.90;;;6.97;;
47804;SDS011;33568;45.286;9.900;2024-02-26T11:33:11;9.27;;;5.28;;
47804;SDS011;33568;45.286;9.900;2024-02-26T11:35:39;5.80;;;3.90;;
47804;SDS011;33568;45.286;9.900;2024-02-26T11:38:06;6.50;;;4.85;;
47804;SDS011;33568;45.286;9.900;2024-02-26T11:40:33;6.53;;;5.38;;
47804;SDS011;33568;45.286;9.900;2024-02-26T11:43:05;6.72;;;6.00;;
47804;SDS011;33568;45.286;9.900;2024-02-26T11:48:21;8.63;;;5.85;;
47804;SDS011;33568;45.286;9.900;2024-02-26T11:50:52;12.77;;;10.95;;
47804;SDS011;33568;45.286;9.900;2024-02-26T11:58:53;5.25;;;3.92;;
47804;SDS011;33568;45.286;9.900;2024-02-26T12:04:11;14.25;;;5.28;;
47804;SDS011;33568;45.286;9.900;2024-02-26T12:06:55;5.00;;;3.40;;
47804;SDS011;33568;45.286;9.900;2024-02-26T12:12:07;3.53;;;2.90;;
47804;SDS011;33568;45.286;9.900;2024-02-26T12:14:39;5.43;;;2.35;;
47804;SDS011;33568;45.286;9.900;2024-02-26T12:17:07;3.30;;;2.22;;
47804;SDS011;33568;45.286;9.900;2024-02-26T12:19:45;6.03;;;3.00;;
47804;SDS011;33568;45.286;9.900;2024-02-26T12:24:42;6.20;;;2.25;;
47804;SDS011;33568;45.286;9.900;2024-02-26T12:27:09;2.78;;;1.98;;
47804;SDS011;33568;45.286;9.900;2024-02-26T12:29:35;3.03;;;2.20;;
47804;SDS011;33568;45.286;9.900;2024-02-26T12:34:30;3.25;;;1.80;;
47804;SDS011;33568;45.286;9.900;2024-02-26T12:36:57;2.60;;;1.80;;
47804;SDS011;33568;45.286;9.900;2024-02-26T12:39:24;1.75;;;1.60;;
47804;SDS011;33568;45.286;9.900;2024-02-26T12:44:17;2.53;;;1.65;;
47804;SDS011;33568;45.286;9.900;2024-02-26T12:46:44;2.88;;;2.22;;
47804;SDS011;33568;45.286;9.900;2024-02-26T12:49:14;3.15;;;2.10;;
47804;SDS011;33568;45.286;9.900;2024-02-26T12:51:43;2.38;;;1.92;;
47804;SDS011;33568;45.286;9.900;2024-02-26T12:54:11;4.03;;;2.00;;
47804;SDS011;33568;45.286;9.900;2024-02-26T12:56:38;6.25;;;1.67;;
47804;SDS011;33568;45.286;9.900;2024-02-26T12:59:05;3.10;;;1.63;;
47804;SDS011;33568;45.286;9.900;2024-02-26T13:01:32;1.58;;;1.40;;
47804;SDS011;33568;45.286;9.900;2024-02-26T13:03:59;1.92;;;1.40;;
47804;SDS011;33568;45.286;9.900;2024-02-26T13:06:32;4.47;;;1.60;;
47804;SDS011;33568;45.286;9.900;2024-02-26T13:08:59;2.17;;;1.40;;
47804;SDS011;33568;45.286;9.900;2024-02-26T13:11:27;5.65;;;1.70;;
47804;SDS011;33568;45.286;9.900;2024-02-26T13:13:55;3.75;;;1.50;;
47804;SDS011;33568;45.286;9.900;2024-02-26T13:16:23;3.08;;;1.55;;
47804;SDS011;33568;45.286;9.900;2024-02-26T13:18:51;3.63;;;1.98;;
47804;SDS011;33568;45.286;9.900;2024-02-26T13:21:18;1.75;;;1.42;;
47804;SDS011;33568;45.286;9.900;2024-02-26T13:23:48;4.72;;;1.60;;
47804;SDS011;33568;45.286;9.900;2024-02-26T13:26:16;2.85;;;1.92;;
47804;SDS011;33568;45.286;9.900;2024-02-26T13:28:42;3.78;;;2.13;;
47804;SDS011;33568;45.286;9.900;2024-02-26T13:33:35;3.35;;;2.35;;
47804;SDS011;33568;45.286;9.900;2024-02-26T13:38:28;4.13;;;2.65;;
47804;SDS011;33568;45.286;9.900;2024-02-26T13:40:55;6.18;;;2.80;;
47804;SDS011;33568;45.286;9.900;2024-02-26T13:45:47;5.15;;;3.13;;
47804;SDS011;33568;45.286;9.900;2024-02-26T13:48:14;4.93;;;3.05;;
47804;SDS011;33568;45.286;9.900;2024-02-26T13:50:41;5.70;;;2.60;;
47804;SDS011;33568;45.286;9.900;2024-02-26T13:53:12;4.78;;;3.20;;
47804;SDS011;33568;45.286;9.900;2024-02-26T13:55:39;3.40;;;3.00;;
47804;SDS011;33568;45.286;9.900;2024-02-26T13:58:08;6.68;;;2.83;;
47804;SDS011;33568;45.286;9.900;2024-02-26T14:00:36;4.63;;;2.92;;
47804;SDS011;33568;45.286;9.900;2024-02-26T14:05:29;5.45;;;2.83;;
47804;SDS011;33568;45.286;9.900;2024-02-26T14:07:56;4.95;;;3.30;;
47804;SDS011;33568;45.286;9.900;2024-02-26T14:10:23;5.35;;;3.38;;
47804;SDS011;33568;45.286;9.900;2024-02-26T14:12:50;4.55;;;3.20;;
47804;SDS011;33568;45.286;9.900;2024-02-26T14:15:17;5.90;;;3.97;;
47804;SDS011;33568;45.286;9.900;2024-02-26T14:20:09;6.15;;;3.80;;
47804;SDS011;33568;45.286;9.900;2024-02-26T14:22:36;8.50;;;4.53;;
47804;SDS011;33568;45.286;9.900;2024-02-26T14:25:02;4.85;;;4.38;;
47804;SDS011;33568;45.286;9.900;2024-02-26T14:27:32;4.63;;;3.80;;
47804;SDS011;33568;45.286;9.900;2024-02-26T14:29:58;4.10;;;3.60;;
47804;SDS011;33568;45.286;9.900;2024-02-26T14:32:25;5.25;;;3.67;;
47804;SDS011;33568;45.286;9.900;2024-02-26T14:34:51;5.97;;;3.50;;
47804;SDS011;33568;45.286;9.900;2024-02-26T14:39:44;4.43;;;3.47;;
47804;SDS011;33568;45.286;9.900;2024-02-26T14:42:10;6.05;;;2.80;;
47804;SDS011;33568;45.286;9.900;2024-02-26T14:44:37;5.90;;;3.22;;
47804;SDS011;33568;45.286;9.900;2024-02-26T14:49:29;5.80;;;3.22;;
47804;SDS011;33568;45.286;9.900;2024-02-26T14:51:57;4.93;;;3.38;;
47804;SDS011;33568;45.286;9.900;2024-02-26T14:56:50;5.35;;;3.97;;
47804;SDS011;33568;45.286;9.900;2024-02-26T14:59:16;6.65;;;3.95;;
47804;SDS011;33568;45.286;9.900;2024-02-26T15:01:42;5.75;;;4.15;;
47804;SDS011;33568;45.286;9.900;2024-02-26T15:04:09;6.82;;;4.22;;
47804;SDS011;33568;45.286;9.900;2024-02-26T15:06:37;10.60;;;5.60;;
47804;SDS011;33568;45.286;9.900;2024-02-26T15:09:06;5.32;;;4.20;;
47804;SDS011;33568;45.286;9.900;2024-02-26T15:11:32;5.20;;;3.83;;
47804;SDS011;33568;45.286;9.900;2024-02-26T15:13:59;5.63;;;4.60;;
47804;SDS011;33568;45.286;9.900;2024-02-26T15:18:51;5.80;;;3.88;;
47804;SDS011;33568;45.286;9.900;2024-02-26T15:21:18;4.90;;;3.72;;
47804;SDS011;33568;45.286;9.900;2024-02-26T15:23:44;7.82;;;4.40;;
47804;SDS011;33568;45.286;9.900;2024-02-26T15:26:11;6.25;;;3.60;;
47804;SDS011;33568;45.286;9.900;2024-02-26T15:28:37;5.75;;;3.80;;
47804;SDS011;33568;45.286;9.900;2024-02-26T15:31:04;4.65;;;3.03;;
47804;SDS011;33568;45.286;9.900;2024-02-26T15:33:30;13.68;;;5.25;;
47804;SDS011;33568;45.286;9.900;2024-02-26T15:35:57;6.35;;;3.08;;
47804;SDS011;33568;45.286;9.900;2024-02-26T15:38:23;5.38;;;3.33;;
47804;SDS011;33568;45.286;9.900;2024-02-26T15:40:50;4.00;;;3.08;;
47804;SDS011;33568;45.286;9.900;2024-02-26T15:43:16;4.68;;;2.85;;
47804;SDS011;33568;45.286;9.900;2024-02-26T15:45:45;2.90;;;2.53;;
47804;SDS011;33568;45.286;9.900;2024-02-26T15:48:11;4.45;;;2.72;;
47804;SDS011;33568;45.286;9.900;2024-02-26T15:50:38;3.85;;;2.67;;
47804;SDS011;33568;45.286;9.900;2024-02-26T15:53:08;4.07;;;2.97;;
47804;SDS011;33568;45.286;9.900;2024-02-26T15:55:34;4.18;;;2.05;;
47804;SDS011;33568;45.286;9.900;2024-02-26T16:00:27;3.90;;;2.25;;
47804;SDS011;33568;45.286;9.900;2024-02-26T16:02:54;3.53;;;2.80;;
47804;SDS011;33568;45.286;9.900;2024-02-26T16:05:20;5.75;;;2.95;;
47804;SDS011;33568;45.286;9.900;2024-02-26T16:07:49;4.55;;;2.95;;
47804;SDS011;33568;45.286;9.900;2024-02-26T16:10:19;4.45;;;3.03;;
47804;SDS011;33568;45.286;9.900;2024-02-26T16:15:19;4.95;;;3.13;;
47804;SDS011;33568;45.286;9.900;2024-02-26T16:17:49;5.53;;;2.92;;
47804;SDS011;33568;45.286;9.900;2024-02-26T16:20:18;7.00;;;3.67;;
47804;SDS011;33568;45.286;9.900;2024-02-26T16:22:46;4.80;;;3.47;;
47804;SDS011;33568;45.286;9.900;2024-02-26T16:25:13;8.63;;;3.47;;
47804;SDS011;33568;45.286;9.900;2024-02-26T16:27:39;4.50;;;3.13;;
47804;SDS011;33568;45.286;9.900;2024-02-26T16:30:07;6.15;;;3.15;;
47804;SDS011;33568;45.286;9.900;2024-02-26T16:32:35;5.57;;;3.25;;